createdAt,value
2023-09-13T00:01:32.010Z,99751.38
2023-09-13T00:03:59.576Z,99736.75
2023-09-13T00:06:26.379Z,99726.28
2023-09-13T00:08:53.026Z,99734.16
2023-09-13T00:11:19.655Z,99732.03
2023-09-13T00:13:46.302Z,99661.97
2023-09-13T00:16:13.228Z,99691.97
2023-09-13T00:18:40.101Z,99681.50
2023-09-13T00:21:10.119Z,99699.00
2023-09-13T00:23:36.792Z,99670.19
2023-09-13T00:26:06.234Z,99695.94
2023-09-13T00:28:33.323Z,99663.75
2023-09-13T00:31:00.200Z,99678.44
2023-09-13T00:33:27.062Z,99681.63
2023-09-13T00:35:57.664Z,99685.09
2023-09-13T00:38:24.338Z,99700.66
2023-09-13T00:40:51.237Z,99685.59
2023-09-13T00:43:18.055Z,99678.59
2023-09-13T00:45:45.396Z,99674.41
2023-09-13T00:48:15.201Z,99676.34
2023-09-13T00:53:19.165Z,99682.38
2023-09-13T00:55:47.990Z,99694.50
2023-09-13T00:58:14.823Z,99702.19
2023-09-13T01:00:41.619Z,99674.53
2023-09-13T01:03:08.505Z,99713.13
2023-09-13T01:05:36.703Z,99706.84
2023-09-13T01:08:04.431Z,99693.84
2023-09-13T01:10:31.262Z,99714.19
2023-09-13T01:12:58.102Z,99675.63
2023-09-13T01:15:28.823Z,99710.25
2023-09-13T01:18:04.588Z,99711.16
2023-09-13T01:20:31.497Z,99724.84
2023-09-13T01:23:23.756Z,99721.53
2023-09-13T01:26:04.950Z,99723.25
2023-09-13T01:28:35.626Z,99721.63
2023-09-13T01:31:06.804Z,99713.53
2023-09-13T01:33:33.713Z,99697.19
2023-09-13T01:36:01.033Z,99725.91
2023-09-13T01:38:28.604Z,99727.72
2023-09-13T01:41:03.297Z,99754.00
2023-09-13T01:43:31.083Z,99751.09
2023-09-13T01:45:58.613Z,99773.88
2023-09-13T01:48:25.818Z,99760.50
2023-09-13T01:50:54.267Z,99753.53
2023-09-13T01:53:21.150Z,99768.31
2023-09-13T01:55:48.029Z,99743.09
2023-09-13T01:58:14.908Z,99771.69
2023-09-13T02:00:42.243Z,99779.16
2023-09-13T02:03:09.016Z,99797.06
2023-09-13T02:05:35.724Z,99791.66
2023-09-13T02:08:02.541Z,99801.28
2023-09-13T02:10:29.251Z,99786.75
2023-09-13T02:12:55.960Z,99784.31
2023-09-13T02:15:22.793Z,99800.59
2023-09-13T02:17:49.476Z,99751.31
2023-09-13T02:20:16.236Z,99794.03
2023-09-13T02:22:43.130Z,99765.84
2023-09-13T02:25:10.005Z,99775.41
2023-09-13T02:27:36.752Z,99772.66
2023-09-13T02:30:09.878Z,99781.22
2023-09-13T02:32:36.669Z,99747.53
2023-09-13T02:35:03.907Z,99745.69
2023-09-13T02:37:30.623Z,99733.75
2023-09-13T02:39:59.429Z,99813.88
2023-09-13T02:42:26.299Z,99784.00
2023-09-13T02:44:53.034Z,99826.81
2023-09-13T02:47:19.795Z,99834.38
2023-09-13T02:49:46.594Z,99833.00
2023-09-13T02:52:13.347Z,99849.59
2023-09-13T02:54:40.252Z,99857.69
2023-09-13T02:57:08.314Z,99859.50
2023-09-13T02:59:35.040Z,99854.81
2023-09-13T03:02:01.938Z,99884.31
2023-09-13T03:04:29.517Z,99884.16
2023-09-13T03:06:56.375Z,99871.41
2023-09-13T03:09:23.193Z,99917.66
2023-09-13T03:11:49.975Z,99949.50
2023-09-13T03:14:16.844Z,99929.00
2023-09-13T03:16:43.669Z,99938.91
2023-09-13T03:19:11.937Z,99983.56
2023-09-13T03:21:38.799Z,99999.59
2023-09-13T03:24:06.650Z,100000.72
2023-09-13T03:26:34.830Z,99988.84
2023-09-13T03:29:01.632Z,100015.31
2023-09-13T03:31:29.280Z,100030.13
2023-09-13T03:33:57.332Z,100012.09
2023-09-13T03:36:26.415Z,100018.84
2023-09-13T03:38:53.201Z,100025.66
2023-09-13T03:41:21.255Z,100034.50
2023-09-13T03:43:48.495Z,100036.31
2023-09-13T03:46:15.432Z,100043.66
2023-09-13T03:48:42.256Z,100044.25
2023-09-13T03:51:09.482Z,100002.00
2023-09-13T03:53:37.025Z,100049.09
2023-09-13T03:56:04.774Z,100027.53
2023-09-13T03:58:31.690Z,100042.91
2023-09-13T04:00:58.839Z,100000.47
2023-09-13T04:03:25.872Z,100011.16
2023-09-13T04:05:53.033Z,100025.19
2023-09-13T04:08:19.992Z,100020.34
2023-09-13T04:10:46.803Z,100018.16
2023-09-13T04:13:13.689Z,100005.75
2023-09-13T04:15:43.405Z,99952.78
2023-09-13T04:18:10.187Z,99981.94
2023-09-13T04:20:36.952Z,99950.88
2023-09-13T04:23:03.811Z,99913.31
2023-09-13T04:25:30.657Z,99859.41
2023-09-13T04:27:57.383Z,99858.00
2023-09-13T04:30:24.232Z,99858.81
2023-09-13T04:32:51.008Z,99833.56
2023-09-13T04:35:18.578Z,99802.81
2023-09-13T04:37:45.342Z,99784.13
2023-09-13T04:40:14.676Z,99838.00
2023-09-13T04:42:55.665Z,99805.59
2023-09-13T04:45:23.308Z,99782.50
2023-09-13T04:47:50.395Z,99817.66
2023-09-13T04:50:17.270Z,99796.66
2023-09-13T04:52:44.205Z,99849.59
2023-09-13T04:55:11.078Z,99853.63
2023-09-13T04:57:37.961Z,99826.06
2023-09-13T05:00:12.606Z,99821.50
2023-09-13T05:02:39.805Z,99879.44
2023-09-13T05:05:07.468Z,99816.38
2023-09-13T05:07:34.256Z,99792.38
2023-09-13T05:10:01.158Z,99757.06
2023-09-13T05:12:27.906Z,99731.16
2023-09-13T05:14:54.609Z,99807.59
2023-09-13T05:17:21.344Z,99769.94
2023-09-13T05:19:48.136Z,99716.47
2023-09-13T05:22:15.211Z,99703.56
2023-09-13T05:24:42.034Z,99687.75
2023-09-13T05:27:08.750Z,99644.72
2023-09-13T05:29:35.439Z,99653.72
2023-09-13T05:32:02.397Z,99649.31
2023-09-13T05:34:29.437Z,99636.13
2023-09-13T05:36:56.888Z,99646.22
2023-09-13T05:39:23.748Z,99643.81
2023-09-13T05:41:51.223Z,99627.00
2023-09-13T05:44:26.337Z,99601.25
2023-09-13T05:46:56.218Z,99630.44
2023-09-13T05:49:23.058Z,99606.97
2023-09-13T05:51:50.686Z,99624.34
2023-09-13T05:54:17.660Z,99599.53
2023-09-13T05:56:45.208Z,99607.75
2023-09-13T05:59:11.949Z,99612.16
2023-09-13T06:01:38.828Z,99596.88
2023-09-13T06:04:07.463Z,99613.97
2023-09-13T06:06:35.353Z,99598.31
2023-09-13T06:09:05.072Z,99571.19
2023-09-13T06:11:32.718Z,99593.16
2023-09-13T06:13:59.580Z,99599.75
2023-09-13T06:16:26.536Z,99587.63
2023-09-13T06:18:53.991Z,99608.78
2023-09-13T06:21:20.746Z,99610.53
2023-09-13T06:23:48.848Z,99569.25
2023-09-13T06:26:15.855Z,99579.44
2023-09-13T06:28:42.953Z,99582.78
2023-09-13T06:31:23.063Z,99592.06
2023-09-13T06:33:56.812Z,99594.88
2023-09-13T06:36:24.339Z,99594.13
2023-09-13T06:38:52.256Z,99565.72
2023-09-13T06:41:19.104Z,99587.59
2023-09-13T06:44:05.580Z,99590.81
2023-09-13T06:46:37.624Z,99604.59
2023-09-13T06:49:05.377Z,99584.81
2023-09-13T06:54:05.886Z,99605.03
2023-09-13T06:56:34.087Z,99603.94
2023-09-13T06:59:06.320Z,99606.53
2023-09-13T07:04:08.587Z,99604.22
2023-09-13T07:06:36.356Z,99599.84
2023-09-13T07:09:04.774Z,99606.91
2023-09-13T07:11:31.583Z,99606.72
2023-09-13T07:13:59.673Z,99606.66
2023-09-13T07:16:27.440Z,99568.78
2023-09-13T07:18:56.163Z,99607.69
2023-09-13T07:21:23.032Z,99604.25
2023-09-13T07:23:49.812Z,99583.97
2023-09-13T07:26:17.143Z,99601.44
2023-09-13T07:28:46.610Z,99552.19
2023-09-13T07:31:14.061Z,99599.53
2023-09-13T07:33:40.872Z,99606.66
2023-09-13T07:36:07.694Z,99553.44
2023-09-13T07:38:36.195Z,99605.09
2023-09-13T07:41:03.048Z,99587.63
2023-09-13T07:43:29.789Z,99592.88
2023-09-13T07:45:56.720Z,99581.66
2023-09-13T07:48:24.494Z,99566.88
2023-09-13T07:50:51.274Z,99599.09
2023-09-13T07:53:18.128Z,99585.94
2023-09-13T07:55:44.813Z,99576.16
2023-09-13T07:58:11.473Z,99599.34
2023-09-13T08:00:38.468Z,99588.97
2023-09-13T08:03:05.932Z,99599.22
2023-09-13T08:05:32.824Z,99602.44
2023-09-13T08:08:00.336Z,99590.53
2023-09-13T08:10:27.359Z,99568.66
2023-09-13T08:12:56.158Z,99609.63
2023-09-13T08:15:30.818Z,99587.34
2023-09-13T08:18:05.623Z,99570.19
2023-09-13T08:20:32.645Z,99588.84
2023-09-13T08:22:59.482Z,99569.34
2023-09-13T08:25:26.553Z,99544.97
2023-09-13T08:27:53.428Z,99594.50
2023-09-13T08:30:23.039Z,99566.97
2023-09-13T08:32:49.789Z,99584.75
2023-09-13T08:35:16.974Z,99580.25
2023-09-13T08:37:43.930Z,99578.44
2023-09-13T08:40:12.364Z,99583.06
2023-09-13T08:42:41.542Z,99557.81
2023-09-13T08:45:08.498Z,99566.53
2023-09-13T08:47:55.122Z,99567.16
2023-09-13T08:50:27.535Z,99566.38
2023-09-13T08:52:54.862Z,99561.19
2023-09-13T08:55:22.128Z,99550.03
2023-09-13T08:57:49.147Z,99547.75
2023-09-13T09:00:17.142Z,99521.13
2023-09-13T09:02:44.527Z,99541.69
2023-09-13T09:05:12.832Z,99532.44
2023-09-13T09:07:41.535Z,99493.53
2023-09-13T09:10:12.747Z,99550.66
2023-09-13T09:12:44.958Z,99547.00
2023-09-13T09:15:13.073Z,99529.94
2023-09-13T09:17:41.087Z,99537.81
2023-09-13T09:20:08.801Z,99506.66
2023-09-13T09:22:35.859Z,99514.16
2023-09-13T09:25:03.917Z,99530.34
2023-09-13T09:27:30.667Z,99486.78
2023-09-13T09:30:01.960Z,99499.97
2023-09-13T09:32:31.922Z,99527.88
2023-09-13T09:35:01.968Z,99510.81
2023-09-13T09:37:34.650Z,99498.38
2023-09-13T09:40:02.286Z,99508.81
2023-09-13T09:42:30.590Z,99501.63
2023-09-13T09:44:57.717Z,99445.00
2023-09-13T09:47:25.004Z,99485.63
2023-09-13T09:49:52.250Z,99498.84
2023-09-13T09:52:20.608Z,99438.28
2023-09-13T09:54:48.950Z,99498.06
2023-09-13T09:57:27.649Z,99476.19
2023-09-13T09:59:54.437Z,99497.50
2023-09-13T10:02:30.368Z,99473.66
2023-09-13T10:05:01.076Z,99466.59
2023-09-13T10:07:27.803Z,99477.72
2023-09-13T10:09:56.664Z,99466.69
2023-09-13T10:12:23.304Z,99497.34
2023-09-13T10:14:50.016Z,99418.09
2023-09-13T10:17:18.406Z,99475.00
2023-09-13T10:19:48.240Z,99429.44
2023-09-13T10:22:15.962Z,99470.84
2023-09-13T10:24:50.422Z,99469.50
2023-09-13T10:27:19.208Z,99453.38
2023-09-13T10:29:48.991Z,99467.50
2023-09-13T10:32:16.840Z,99472.69
2023-09-13T10:35:05.157Z,99474.78
2023-09-13T10:37:57.709Z,99467.56
2023-09-13T10:40:26.274Z,99448.31
2023-09-13T10:42:54.094Z,99449.81
2023-09-13T10:45:23.897Z,99449.00
2023-09-13T10:47:51.962Z,99415.66
2023-09-13T10:50:23.151Z,99448.16
2023-09-13T10:52:50.982Z,99395.25
2023-09-13T10:55:18.082Z,99440.63
2023-09-13T10:57:45.018Z,99423.56
2023-09-13T11:00:13.389Z,99441.28
2023-09-13T11:02:45.215Z,99438.78
2023-09-13T11:05:13.020Z,99441.66
2023-09-13T11:07:48.280Z,99420.72
2023-09-13T11:10:19.546Z,99452.03
2023-09-13T11:12:52.764Z,99425.41
2023-09-13T11:15:27.080Z,99434.09
2023-09-13T11:17:55.370Z,99435.78
2023-09-13T11:20:26.136Z,99436.25
2023-09-13T11:23:07.238Z,99432.09
2023-09-13T11:25:58.418Z,99405.63
2023-09-13T11:28:40.114Z,99423.84
2023-09-13T11:31:11.144Z,99332.63
2023-09-13T11:33:45.964Z,99425.38
2023-09-13T11:36:13.107Z,99431.25
2023-09-13T11:38:39.849Z,99390.03
2023-09-13T11:41:06.832Z,99421.72
2023-09-13T11:43:37.835Z,99426.56
2023-09-13T11:46:05.778Z,99417.63
2023-09-13T11:48:54.818Z,99419.78
2023-09-13T11:51:25.684Z,99411.03
2023-09-13T11:53:53.147Z,99402.25
2023-09-13T11:56:51.256Z,99408.69
2023-09-13T12:01:56.644Z,99387.09
2023-09-13T12:06:59.806Z,99363.63
2023-09-13T12:09:30.747Z,99399.09
2023-09-13T12:12:02.009Z,99374.50
2023-09-13T12:14:57.096Z,99392.34
2023-09-13T12:17:20.606Z,99387.81
2023-09-13T12:19:48.715Z,99392.72
2023-09-13T12:22:17.493Z,99386.66
2023-09-13T12:24:53.748Z,99384.22
2023-09-13T12:27:20.894Z,99390.59
2023-09-13T12:29:52.779Z,99395.38
2023-09-13T12:32:19.495Z,99392.84
2023-09-13T12:34:48.970Z,99382.06
2023-09-13T12:37:16.288Z,99355.06
2023-09-13T12:39:43.643Z,99375.59
2023-09-13T12:42:10.624Z,99370.09
2023-09-13T12:44:38.704Z,99359.44
2023-09-13T12:47:06.570Z,99373.53
2023-09-13T12:49:39.378Z,99359.47
2023-09-13T12:52:06.507Z,99367.09
2023-09-13T12:54:37.197Z,99359.31
2023-09-13T12:57:04.414Z,99370.91
2023-09-13T12:59:48.155Z,99364.31
2023-09-13T13:02:21.156Z,99356.44
2023-09-13T13:04:48.648Z,99374.22
2023-09-13T13:07:24.529Z,99373.66
2023-09-13T13:09:53.046Z,99376.59
2023-09-13T13:12:19.863Z,99356.66
2023-09-13T13:14:52.877Z,99346.75
2023-09-13T13:17:26.001Z,99365.03
2023-09-13T13:19:57.489Z,99368.94
2023-09-13T13:22:25.905Z,99358.06
2023-09-13T13:24:53.922Z,99356.38
2023-09-13T13:27:21.273Z,99362.84
2023-09-13T13:29:49.353Z,99331.81
2023-09-13T13:32:16.648Z,99353.16
2023-09-13T13:34:43.795Z,99325.72
2023-09-13T13:37:14.341Z,99333.75
2023-09-13T13:39:41.282Z,99314.72
2023-09-13T13:42:08.057Z,99337.47
2023-09-13T13:44:35.985Z,99347.44
2023-09-13T13:47:09.063Z,99342.41
2023-09-13T13:49:36.481Z,99316.63
2023-09-13T13:52:03.476Z,99345.09
2023-09-13T13:54:30.374Z,99335.31
2023-09-13T13:56:57.080Z,99322.22
2023-09-13T13:59:23.845Z,99320.31
2023-09-13T14:01:50.654Z,99331.38
2023-09-13T14:04:17.607Z,99334.66
2023-09-13T14:06:47.585Z,99314.09
2023-09-13T14:09:17.638Z,99308.72
2023-09-13T14:11:44.394Z,99324.22
2023-09-13T14:14:15.121Z,99309.22
2023-09-13T14:16:45.105Z,99321.81
2023-09-13T14:19:12.868Z,99317.16
2023-09-13T14:21:46.396Z,99310.06
2023-09-13T14:24:13.406Z,99250.31
2023-09-13T14:26:40.269Z,99249.16
2023-09-13T14:29:08.937Z,99291.63
2023-09-13T14:31:38.388Z,99310.72
2023-09-13T14:34:07.738Z,99299.56
2023-09-13T14:36:34.892Z,99300.63
2023-09-13T14:39:01.800Z,99298.84
2023-09-13T14:41:30.188Z,99288.38
2023-09-13T14:43:56.861Z,99309.53
2023-09-13T14:46:23.872Z,99305.09
2023-09-13T14:48:54.395Z,99302.59
2023-09-13T14:51:21.862Z,99305.66
2023-09-13T14:53:48.695Z,99313.88
2023-09-13T14:56:15.410Z,99304.16
2023-09-13T14:58:42.758Z,99311.81
2023-09-13T15:01:09.801Z,99301.66
2023-09-13T15:03:38.084Z,99307.75
2023-09-13T15:06:05.157Z,99298.72
2023-09-13T15:08:31.886Z,99297.72
2023-09-13T15:10:58.732Z,99289.13
2023-09-13T15:13:25.426Z,99294.44
2023-09-13T15:15:52.749Z,99312.31
2023-09-13T15:18:19.935Z,99308.91
2023-09-13T15:20:47.634Z,99307.38
2023-09-13T15:23:14.433Z,99298.69
2023-09-13T15:25:41.187Z,99297.91
2023-09-13T15:28:08.025Z,99305.13
2023-09-13T15:30:34.796Z,99316.69
2023-09-13T15:33:01.620Z,99302.81
2023-09-13T15:35:28.847Z,99320.56
2023-09-13T15:37:55.695Z,99330.09
2023-09-13T15:40:22.429Z,99332.91
2023-09-13T15:42:49.372Z,99337.75
2023-09-13T15:45:19.494Z,99332.38
2023-09-13T15:47:48.973Z,99312.91
2023-09-13T15:50:15.782Z,99338.69
2023-09-13T15:52:42.781Z,99343.88
2023-09-13T15:55:10.399Z,99338.88
2023-09-13T15:57:37.112Z,99343.53
2023-09-13T16:00:04.665Z,99338.59
2023-09-13T16:02:33.792Z,99348.22
2023-09-13T16:05:00.613Z,99352.84
2023-09-13T16:07:31.645Z,99346.25
2023-09-13T16:09:58.342Z,99355.34
2023-09-13T16:12:25.088Z,99360.47
2023-09-13T16:14:51.825Z,99373.66
2023-09-13T16:17:18.656Z,99358.09
2023-09-13T16:19:45.475Z,99354.88
2023-09-13T16:22:12.138Z,99373.03
2023-09-13T16:24:38.899Z,99350.66
2023-09-13T16:27:05.702Z,99366.34
2023-09-13T16:29:32.921Z,99354.91
2023-09-13T16:32:00.444Z,99370.41
2023-09-13T16:34:27.379Z,99365.75
2023-09-13T16:36:54.588Z,99357.31
2023-09-13T16:39:22.129Z,99379.47
2023-09-13T16:41:49.346Z,99379.00
2023-09-13T16:44:16.625Z,99359.69
2023-09-13T16:46:46.882Z,99378.88
2023-09-13T16:49:14.439Z,99377.00
2023-09-13T16:51:42.125Z,99370.56
2023-09-13T16:54:08.873Z,99374.56
2023-09-13T16:56:35.546Z,99388.09
2023-09-13T16:59:02.235Z,99394.00
2023-09-13T17:01:29.040Z,99395.25
2023-09-13T17:03:55.929Z,99391.22
2023-09-13T17:06:24.899Z,99383.44
2023-09-13T17:08:51.537Z,99391.88
2023-09-13T17:11:19.796Z,99375.09
2023-09-13T17:13:47.488Z,99386.19
2023-09-13T17:16:14.614Z,99382.94
2023-09-13T17:18:41.384Z,99389.56
2023-09-13T17:21:08.185Z,99397.13
2023-09-13T17:23:34.999Z,99380.50
2023-09-13T17:26:01.995Z,99388.41
2023-09-13T17:28:38.047Z,99393.34
2023-09-13T17:31:04.986Z,99378.31
2023-09-13T17:33:31.778Z,99376.53
2023-09-13T17:35:59.010Z,99376.09
2023-09-13T17:38:25.774Z,99391.94
2023-09-13T17:40:52.579Z,99382.59
2023-09-13T17:43:19.331Z,99375.97
2023-09-13T17:45:46.251Z,99379.34
2023-09-13T17:48:13.043Z,99389.16
2023-09-13T17:50:40.266Z,99376.94
2023-09-13T17:53:07.835Z,99378.03
2023-09-13T17:55:34.995Z,99366.59
2023-09-13T17:58:02.085Z,99368.00
2023-09-13T18:00:29.229Z,99375.41
2023-09-13T18:02:56.523Z,99383.03
2023-09-13T18:05:23.575Z,99383.88
2023-09-13T18:07:56.122Z,99369.50
2023-09-13T18:10:23.015Z,99376.41
2023-09-13T18:12:49.836Z,99386.50
2023-09-13T18:15:16.699Z,99372.25
2023-09-13T18:17:52.649Z,99377.84
2023-09-13T18:20:20.920Z,99390.88
2023-09-13T18:22:47.720Z,99376.03
2023-09-13T18:25:14.532Z,99385.84
2023-09-13T18:27:43.898Z,99378.59
2023-09-13T18:30:12.257Z,99371.41
2023-09-13T18:32:39.182Z,99382.75
2023-09-13T18:35:06.408Z,99338.09
2023-09-13T18:37:34.853Z,99377.47
2023-09-13T18:40:01.720Z,99382.91
2023-09-13T18:42:28.579Z,99374.94
2023-09-13T18:44:56.790Z,99390.91
2023-09-13T18:47:23.793Z,99371.56
2023-09-13T18:49:50.451Z,99371.84
2023-09-13T18:52:17.163Z,99361.63
2023-09-13T18:54:43.948Z,99386.16
2023-09-13T18:57:11.274Z,99370.16
2023-09-13T18:59:40.939Z,99385.66
2023-09-13T19:02:12.244Z,99389.91
2023-09-13T19:04:39.150Z,99391.88
2023-09-13T19:07:10.264Z,99397.63
2023-09-13T19:09:39.856Z,99388.78
2023-09-13T19:12:07.448Z,99369.97
2023-09-13T19:14:34.218Z,99395.91
2023-09-13T19:17:00.961Z,99404.59
2023-09-13T19:19:27.690Z,99380.47
2023-09-13T19:21:54.537Z,99378.94
2023-09-13T19:24:21.371Z,99407.47
2023-09-13T19:26:48.201Z,99398.25
2023-09-13T19:29:14.980Z,99397.16
2023-09-13T19:31:41.770Z,99363.94
2023-09-13T19:34:08.550Z,99383.41
2023-09-13T19:36:35.313Z,99385.34
2023-09-13T19:39:03.613Z,99396.69
2023-09-13T19:41:30.355Z,99382.53
2023-09-13T19:43:57.555Z,99369.78
2023-09-13T19:46:24.524Z,99374.97
2023-09-13T19:48:51.266Z,99391.47
2023-09-13T19:51:18.094Z,99397.03
2023-09-13T19:53:45.005Z,99369.81
2023-09-13T19:56:11.882Z,99399.78
2023-09-13T19:58:40.614Z,99389.41
2023-09-13T20:01:09.234Z,99394.41
2023-09-13T20:03:36.641Z,99390.47
2023-09-13T20:06:15.361Z,99398.50
2023-09-13T20:08:42.132Z,99395.13
2023-09-13T20:11:09.663Z,99399.03
2023-09-13T20:13:40.816Z,99404.00
2023-09-13T20:16:08.229Z,99400.19
2023-09-13T20:18:34.982Z,99403.63
2023-09-13T20:21:04.677Z,99410.38
2023-09-13T20:23:31.602Z,99412.72
2023-09-13T20:25:58.749Z,99411.97
2023-09-13T20:28:27.260Z,99415.31
2023-09-13T20:30:55.397Z,99413.38
2023-09-13T20:33:22.457Z,99410.13
2023-09-13T20:35:50.038Z,99409.31
2023-09-13T20:38:17.824Z,99414.50
2023-09-13T20:40:44.597Z,99398.25
2023-09-13T20:43:11.752Z,99389.28
2023-09-13T20:45:39.424Z,99383.44
2023-09-13T20:48:06.782Z,99404.13
2023-09-13T20:50:33.532Z,99401.78
2023-09-13T20:53:00.318Z,99393.34
2023-09-13T20:55:27.085Z,99407.66
2023-09-13T20:57:53.839Z,99400.34
2023-09-13T21:00:20.636Z,99408.75
2023-09-13T21:02:47.383Z,99381.25
2023-09-13T21:05:14.075Z,99395.16
2023-09-13T21:07:40.872Z,99378.84
2023-09-13T21:10:07.780Z,99395.53
2023-09-13T21:12:34.577Z,99392.06
2023-09-13T21:15:01.226Z,99390.75
2023-09-13T21:17:27.989Z,99393.72
2023-09-13T21:19:55.095Z,99370.16
2023-09-13T21:22:21.992Z,99402.09
2023-09-13T21:24:50.376Z,99381.50
2023-09-13T21:27:17.210Z,99382.72
2023-09-13T21:29:44.005Z,99399.56
2023-09-13T21:32:10.827Z,99377.34
2023-09-13T21:34:55.021Z,99375.63
2023-09-13T21:37:26.352Z,99394.41
2023-09-13T21:39:53.727Z,99397.75
2023-09-13T21:42:22.362Z,99381.69
2023-09-13T21:44:50.904Z,99391.13
2023-09-13T21:47:17.660Z,99376.56
2023-09-13T21:49:44.413Z,99379.44
2023-09-13T21:52:11.116Z,99396.38
2023-09-13T21:54:43.745Z,99387.59
2023-09-13T21:57:10.717Z,99380.94
2023-09-13T21:59:37.519Z,99375.41
2023-09-13T22:02:04.798Z,99385.06
2023-09-13T22:04:31.992Z,99372.22
2023-09-13T22:06:58.926Z,99378.38
2023-09-13T22:09:25.767Z,99359.59
2023-09-13T22:11:52.756Z,99390.16
2023-09-13T22:14:19.492Z,99389.97
2023-09-13T22:16:46.271Z,99389.41
2023-09-13T22:19:13.195Z,99388.06
2023-09-13T22:21:40.079Z,99389.03
2023-09-13T22:24:07.024Z,99383.50
2023-09-13T22:26:33.731Z,99391.09
2023-09-13T22:29:00.524Z,99382.47
2023-09-13T22:31:27.331Z,99406.41
2023-09-13T22:33:56.432Z,99403.88
2023-09-13T22:36:23.340Z,99399.31
2023-09-13T22:38:58.438Z,99389.09
2023-09-13T22:41:34.874Z,99394.16
2023-09-13T22:44:01.769Z,99395.63
2023-09-13T22:46:28.649Z,99381.78
2023-09-13T22:48:55.564Z,99380.53
2023-09-13T22:51:22.377Z,99389.63
2023-09-13T22:53:49.225Z,99407.81
2023-09-13T22:56:15.999Z,99373.53
2023-09-13T22:58:43.079Z,99404.44
2023-09-13T23:01:11.257Z,99400.47
2023-09-13T23:03:45.232Z,99394.84
2023-09-13T23:06:13.167Z,99406.31
2023-09-13T23:08:40.386Z,99401.63
2023-09-13T23:11:07.550Z,99419.94
2023-09-13T23:13:37.522Z,99410.16
2023-09-13T23:16:06.475Z,99416.94
2023-09-13T23:18:35.075Z,99408.59
2023-09-13T23:21:02.600Z,99420.78
2023-09-13T23:23:31.064Z,99417.88
2023-09-13T23:26:02.469Z,99441.34
2023-09-13T23:28:29.573Z,99452.41
2023-09-13T23:31:07.957Z,99460.78
2023-09-13T23:33:36.581Z,99443.00
2023-09-13T23:36:04.580Z,99451.94
2023-09-13T23:38:32.175Z,99434.44
2023-09-13T23:41:06.516Z,99448.84
2023-09-13T23:43:37.231Z,99454.50
2023-09-13T23:46:05.139Z,99466.28
2023-09-13T23:48:33.291Z,99472.84
2023-09-13T23:51:00.162Z,99490.25
2023-09-13T23:53:28.243Z,99500.66
2023-09-13T23:55:55.050Z,99514.28
2023-09-13T23:58:21.744Z,99481.59
